Time;durP1;ratioP1;P1;durP2;ratioP2;P2;SDS_P1;SDS_P2;PMS_P1;PMS_P2;Temp;Humidity;BMP_temperature;BMP_pressure;BME280_temperature;BME280_humidity;BME280_pressure;Samples;Min_cycle;Max_cycle;Signal;HPM_P1;HPM_P2
2023/09/19 00:00:24;;;;;;;5.65;5.35;;;;;;;14.53;100.00;100196.97;6054996;23;20097;-72
2023/09/19 00:02:55;;;;;;;5.75;5.35;;;;;;;14.83;100.00;100251.06;6027083;23;20019;-73
2023/09/19 00:05:23;;;;;;;5.75;5.28;;;;;;;14.89;100.00;100277.88;6054732;23;20136;-73
2023/09/19 00:07:54;;;;;;;8.40;5.55;;;;;;;14.80;100.00;100268.00;6019818;23;20036;-72
2023/09/19 00:10:24;;;;;;;5.53;5.15;;;;;;;14.79;100.00;100283.97;6026246;23;20033;-72
2023/09/19 00:12:53;;;;;;;6.25;5.60;;;;;;;14.51;100.00;100241.13;6051955;23;20014;-72
2023/09/19 00:15:20;;;;;;;5.40;5.10;;;;;;;14.72;100.00;100289.72;6027664;23;20023;-72
2023/09/19 00:17:47;;;;;;;5.30;5.10;;;;;;;14.70;100.00;100289.00;6051268;23;20077;-70
2023/09/19 00:20:17;;;;;;;5.63;5.20;;;;;;;14.35;100.00;100265.22;6025713;23;20031;-71
2023/09/19 00:22:44;;;;;;;5.70;5.40;;;;;;;14.61;100.00;100315.25;6054707;23;20028;-72
2023/09/19 00:25:15;;;;;;;5.88;5.45;;;;;;;14.39;100.00;100290.44;6028344;23;20035;-73
2023/09/19 00:27:43;;;;;;;5.40;5.20;;;;;;;14.72;100.00;100331.16;6054091;23;20026;-71
2023/09/19 00:30:19;;;;;;;5.60;5.30;;;;;;;14.31;100.00;100245.28;6025841;23;20030;-71
2023/09/19 00:32:47;;;;;;;6.10;5.60;;;;;;;14.75;100.00;100322.97;6054761;23;20037;-71
2023/09/19 00:35:18;;;;;;;5.70;5.18;;;;;;;14.45;100.00;100257.44;6033585;23;20046;-71
2023/09/19 00:37:45;;;;;;;5.63;5.32;;;;;;;14.79;100.00;100305.09;6022921;23;20019;-72
2023/09/19 00:40:15;;;;;;;16.27;5.40;;;;;;;14.81;100.00;100306.66;6054761;23;20022;-72
2023/09/19 00:42:46;;;;;;;5.95;5.55;;;;;;;14.81;100.00;100304.03;6026055;23;20065;-72
2023/09/19 00:45:15;;;;;;;5.40;5.10;;;;;;;14.84;100.00;100302.97;6047092;23;20023;-72
2023/09/19 00:47:46;;;;;;;11.13;5.82;;;;;;;14.75;100.00;100286.88;6020544;23;20022;-71
2023/09/19 00:50:17;;;;;;;6.10;5.65;;;;;;;14.40;100.00;100225.28;6051534;23;20476;-72
2023/09/19 00:52:44;;;;;;;5.70;5.40;;;;;;;14.64;100.00;100278.06;6021302;23;20280;-71
2023/09/19 00:55:14;;;;;;;5.78;5.32;;;;;;;14.81;100.00;100300.53;6053950;23;20089;-71
2023/09/19 00:57:40;;;;;;;6.05;5.65;;;;;;;14.60;100.00;100266.88;6017531;23;20031;-72
2023/09/19 01:00:15;;;;;;;5.47;5.18;;;;;;;14.83;100.00;100304.75;6054180;23;20089;-72
2023/09/19 01:02:43;;;;;;;5.70;5.40;;;;;;;14.83;100.00;100294.19;6027576;23;20021;-71
2023/09/19 01:05:12;;;;;;;5.75;5.45;;;;;;;14.71;100.00;100280.13;6053287;23;20617;-71
2023/09/19 01:07:42;;;;;;;8.95;5.50;;;;;;;14.78;100.00;100290.22;6021418;23;20046;-71
2023/09/19 01:10:15;;;;;;;6.30;4.95;;;;;;;14.81;100.00;100300.53;6056540;23;20026;-72
2023/09/19 01:13:12;;;;;;;5.68;5.28;;;;;;;13.63;100.00;100104.38;6024705;23;20043;-72
2023/09/19 01:16:11;;;;;;;6.03;5.40;;;;;;;14.79;100.00;100292.72;6027199;23;20031;-72
2023/09/19 01:19:14;;;;;;;5.70;5.20;;;;;;;14.76;100.00;100304.38;6028297;23;20034;-71
2023/09/19 01:22:14;;;;;;;5.70;5.20;;;;;;;14.80;100.00;100304.16;6008434;23;20533;-72
2023/09/19 01:24:53;;;;;;;6.05;5.55;;;;;;;14.77;100.00;100299.94;6050263;23;20026;-71
2023/09/19 01:27:44;;;;;;;5.40;5.05;;;;;;;14.73;100.00;100299.34;6027997;23;20669;-71
2023/09/19 01:30:14;;;;;;;5.20;4.97;;;;;;;14.69;100.00;100303.19;6031071;23;20035;-71
2023/09/19 01:32:43;;;;;;;5.95;5.65;;;;;;;14.52;100.00;100287.72;6026194;23;20019;-71
2023/09/19 01:35:12;;;;;;;5.53;5.20;;;;;;;14.30;100.00;100256.81;6030061;23;20051;-72
2023/09/19 01:37:39;;;;;;;5.43;5.15;;;;;;;13.49;100.00;100140.53;6031728;23;20186;-72
2023/09/19 01:40:19;;;;;;;5.68;5.38;;;;;;;14.58;100.00;100320.78;6028539;23;20110;-72
2023/09/19 01:43:05;;;;;;;5.70;5.30;;;;;;;14.73;100.00;100328.41;6019784;23;20083;-72
2023/09/19 01:45:57;;;;;;;7.32;5.53;;;;;;;14.85;100.00;100309.91;5995623;23;20054;-71
2023/09/19 01:48:39;;;;;;;5.90;5.45;;;;;;;14.47;100.00;100244.97;6022938;23;20028;-70
2023/09/19 01:51:07;;;;;;;6.20;5.10;;;;;;;14.40;100.00;100243.78;6002704;23;20030;-71
2023/09/19 01:53:56;;;;;;;6.53;5.53;;;;;;;14.18;100.00;100194.41;6017619;23;20640;-72
2023/09/19 01:56:32;;;;;;;6.38;5.30;;;;;;;14.80;100.00;100290.94;5999693;23;20035;-72
2023/09/19 01:59:05;;;;;;;5.82;5.43;;;;;;;14.81;100.00;100287.34;6025373;23;20030;-73
2023/09/19 02:01:37;;;;;;;6.93;5.45;;;;;;;14.21;100.00;100202.91;5997882;23;20098;-73
2023/09/19 02:04:04;;;;;;;5.30;5.00;;;;;;;14.63;100.00;100273.72;5994399;23;20085;-71
2023/09/19 02:06:32;;;;;;;7.13;5.30;;;;;;;14.74;100.00;100286.97;5994322;23;20548;-71
2023/09/19 02:08:59;;;;;;;5.50;5.10;;;;;;;14.11;100.00;100194.00;5998639;23;20015;-71
2023/09/19 02:11:25;;;;;;;5.65;5.30;;;;;;;14.71;100.00;100301.25;6023274;23;20054;-71
2023/09/19 02:13:54;;;;;;;5.70;5.20;;;;;;;13.98;100.00;100185.34;5996208;23;20017;-71
2023/09/19 02:16:21;;;;;;;5.60;5.20;;;;;;;14.64;100.00;100294.75;6025613;23;20402;-72
2023/09/19 02:18:49;;;;;;;5.93;5.57;;;;;;;14.59;100.00;100291.59;5994246;23;20082;-72
2023/09/19 02:21:17;;;;;;;9.88;5.88;;;;;;;14.58;100.00;100279.38;6000899;23;20500;-72
2023/09/19 02:23:44;;;;;;;5.65;5.15;;;;;;;14.09;100.00;100204.69;6018948;23;20047;-73
2023/09/19 02:26:12;;;;;;;6.35;5.95;;;;;;;14.51;100.00;100278.97;6003620;23;20023;-72
2023/09/19 02:28:38;;;;;;;5.97;5.40;;;;;;;14.55;100.00;100284.84;6029134;23;20082;-72
2023/09/19 02:31:07;;;;;;;5.78;5.30;;;;;;;14.57;100.00;100269.75;6026939;23;20030;-72
2023/09/19 02:33:34;;;;;;;7.05;5.95;;;;;;;14.50;100.00;100272.00;6053787;23;20562;-72
2023/09/19 02:36:03;;;;;;;5.60;5.18;;;;;;;14.16;100.00;100216.44;6026657;23;20595;-72
2023/09/19 02:38:30;;;;;;;6.07;5.57;;;;;;;14.46;100.00;100267.91;6027342;23;20103;-71
2023/09/19 02:40:56;;;;;;;8.77;6.00;;;;;;;14.13;100.00;100232.53;6056027;23;20323;-71
2023/09/19 02:43:23;;;;;;;6.88;5.40;;;;;;;14.35;100.00;100274.00;6024386;23;20063;-73
2023/09/19 02:45:50;;;;;;;5.70;5.28;;;;;;;14.38;100.00;100307.25;6026291;23;20037;-71
2023/09/19 02:48:18;;;;;;;5.43;5.05;;;;;;;14.30;100.00;100277.94;6056538;23;20068;-72
2023/09/19 02:50:45;;;;;;;5.70;5.40;;;;;;;13.64;100.00;100177.28;6027019;23;20019;-71
2023/09/19 02:53:12;;;;;;;7.53;6.93;;;;;;;14.23;100.00;100289.88;6026433;23;20524;-71
2023/09/19 02:55:40;;;;;;;5.35;5.05;;;;;;;13.95;100.00;100268.16;6024368;23;20026;-71
2023/09/19 02:58:14;;;;;;;5.90;5.40;;;;;;;13.52;100.00;100206.22;6018890;23;20074;-71
2023/09/19 03:00:47;;;;;;;5.15;4.85;;;;;;;14.05;100.00;100308.78;6008668;23;20442;-71
2023/09/19 03:03:15;;;;;;;5.80;5.40;;;;;;;13.95;100.00;100307.72;6014384;23;20015;-71
2023/09/19 03:05:46;;;;;;;5.47;5.13;;;;;;;14.02;100.00;100326.63;6008779;23;20014;-72
2023/09/19 03:08:16;;;;;;;5.65;5.35;;;;;;;13.46;100.00;100209.28;6014307;23;20022;-71
2023/09/19 03:10:46;;;;;;;6.18;5.53;;;;;;;13.74;100.00;100249.50;6053939;23;20448;-72
2023/09/19 03:13:15;;;;;;;5.40;5.00;;;;;;;13.29;100.00;100151.63;6025172;23;20029;-72
2023/09/19 03:15:44;;;;;;;5.32;5.03;;;;;;;13.94;100.00;100256.78;5999987;23;20038;-71
2023/09/19 03:18:13;;;;;;;5.60;5.15;;;;;;;13.88;100.00;100261.66;6026831;23;20090;-71
2023/09/19 03:20:39;;;;;;;5.25;4.90;;;;;;;13.95;100.00;100258.47;6029058;23;20424;-71
2023/09/19 03:23:06;;;;;;;5.47;5.18;;;;;;;13.97;100.00;100271.53;6003313;23;20043;-71
2023/09/19 03:25:35;;;;;;;6.03;5.72;;;;;;;13.87;100.00;100257.34;6014426;23;20063;-70
2023/09/19 03:28:05;;;;;;;5.32;5.03;;;;;;;13.83;100.00;100274.34;6032799;23;20029;-72
2023/09/19 03:30:33;;;;;;;5.57;5.28;;;;;;;13.82;100.00;100277.94;6004099;23;20496;-72
2023/09/19 03:33:00;;;;;;;5.15;4.95;;;;;;;13.56;100.00;100252.50;6044829;23;20343;-73
2023/09/19 03:35:27;;;;;;;8.57;5.30;;;;;;;13.36;100.00;100218.81;6023504;23;20575;-73
2023/09/19 03:37:53;;;;;;;5.40;5.10;;;;;;;13.84;100.00;100295.34;6024693;23;20026;-70
2023/09/19 03:40:21;;;;;;;5.20;4.85;;;;;;;13.36;100.00;100227.56;6028891;23;20082;-72
2023/09/19 03:42:48;;;;;;;5.70;5.20;;;;;;;13.72;100.00;100298.88;6045229;23;20019;-70
2023/09/19 03:45:15;;;;;;;8.38;5.45;;;;;;;13.33;100.00;100243.59;5999233;23;20110;-72
2023/09/19 03:47:42;;;;;;;5.45;5.00;;;;;;;13.68;100.00;100292.97;6028163;23;20030;-72
2023/09/19 03:50:10;;;;;;;5.30;5.00;;;;;;;13.21;100.00;100206.69;6027916;23;20187;-72
2023/09/19 03:52:37;;;;;;;7.35;5.38;;;;;;;13.47;100.00;100253.16;6023655;23;20034;-72
2023/09/19 03:55:05;;;;;;;5.43;5.18;;;;;;;13.70;100.00;100280.50;6020407;23;20038;-71
2023/09/19 03:57:32;;;;;;;5.85;5.55;;;;;;;12.67;100.00;100118.28;6020039;23;20037;-71
2023/09/19 03:59:58;;;;;;;5.55;5.25;;;;;;;13.65;100.00;100268.59;5992899;23;20390;-71
2023/09/19 04:02:25;;;;;;;7.18;5.40;;;;;;;13.49;100.00;100253.91;6014974;23;20019;-72
2023/09/19 04:04:52;;;;;;;5.72;5.28;;;;;;;13.42;100.00;100238.63;5997521;23;20034;-72
2023/09/19 04:07:22;;;;;;;5.75;5.45;;;;;;;13.72;100.00;100269.84;6020990;23;20045;-71
2023/09/19 04:09:49;;;;;;;5.28;5.03;;;;;;;13.55;100.00;100258.72;5975169;23;20026;-72
2023/09/19 04:12:16;;;;;;;5.90;5.20;;;;;;;13.26;100.00;100212.50;6029526;23;20408;-72
2023/09/19 04:14:45;;;;;;;5.57;5.18;;;;;;;13.57;100.00;100261.25;6026434;23;20112;-71
2023/09/19 04:17:11;;;;;;;5.00;4.72;;;;;;;13.62;100.00;100282.84;6020486;23;20671;-71
2023/09/19 04:19:38;;;;;;;6.10;5.38;;;;;;;13.09;100.00;100204.00;6053032;23;20053;-71
2023/09/19 04:22:05;;;;;;;5.25;4.93;;;;;;;13.57;100.00;100293.75;6025813;23;20101;-71
2023/09/19 04:24:32;;;;;;;7.78;5.20;;;;;;;13.57;100.00;100304.28;6022864;23;20022;-71
2023/09/19 04:26:59;;;;;;;5.60;5.15;;;;;;;13.26;100.00;100252.84;6055151;23;20041;-71
2023/09/19 04:29:29;;;;;;;5.38;5.07;;;;;;;13.57;100.00;100304.28;6027539;23;20023;-71
2023/09/19 04:31:57;;;;;;;5.90;5.22;;;;;;;13.56;100.00;100314.94;6023582;23;20472;-71
2023/09/19 04:34:24;;;;;;;5.50;4.97;;;;;;;13.23;100.00;100265.38;6027425;23;20082;-71
2023/09/19 04:36:50;;;;;;;5.22;4.90;;;;;;;13.46;100.00;100317.38;6024885;23;20485;-71
2023/09/19 04:39:17;;;;;;;5.40;5.10;;;;;;;13.43;100.00;100328.16;6001090;23;20074;-71
2023/09/19 04:41:45;;;;;;;5.32;5.05;;;;;;;12.88;100.00;100268.69;6051677;23;20086;-71
2023/09/19 04:44:13;;;;;;;5.47;5.18;;;;;;;13.43;100.00;100348.38;6002315;23;20022;-71
2023/09/19 04:46:40;;;;;;;5.40;5.00;;;;;;;13.02;100.00;100287.03;5997038;23;20038;-72
2023/09/19 04:49:06;;;;;;;5.30;5.10;;;;;;;13.06;100.00;100291.13;6047273;23;20097;-71
2023/09/19 04:51:36;;;;;;;6.07;5.68;;;;;;;13.44;100.00;100368.53;6000264;23;20037;-71
2023/09/19 04:54:02;;;;;;;6.15;5.75;;;;;;;12.85;100.00;100274.16;6018855;23;20029;-71
2023/09/19 04:56:29;;;;;;;5.10;4.80;;;;;;;13.40;100.00;100367.88;6048669;23;20018;-71
2023/09/19 04:58:58;;;;;;;6.18;5.72;;;;;;;12.95;100.00;100291.88;6026897;23;20624;-72
2023/09/19 05:01:25;;;;;;;5.45;5.00;;;;;;;13.38;100.00;100382.13;6026472;23;20033;-71
2023/09/19 05:03:52;;;;;;;5.53;5.22;;;;;;;13.34;100.00;100379.69;6043492;23;21619;-71
2023/09/19 05:06:20;;;;;;;5.18;4.88;;;;;;;12.75;100.00;100289.78;6026083;23;20054;-71
2023/09/19 05:08:51;;;;;;;5.70;5.40;;;;;;;13.30;100.00;100374.75;6048114;23;20021;-70
2023/09/19 05:11:18;;;;;;;5.35;5.05;;;;;;;12.85;100.00;100300.50;6026762;23;20027;-71
2023/09/19 05:13:45;;;;;;;5.20;4.90;;;;;;;13.06;100.00;100329.81;6025875;23;20334;-71
2023/09/19 05:16:12;;;;;;;7.03;5.55;;;;;;;13.32;100.00;100381.59;6024426;23;20034;-71
2023/09/19 05:18:38;;;;;;;5.50;5.20;;;;;;;13.25;100.00;100385.56;6011708;23;20038;-71
2023/09/19 05:21:05;;;;;;;5.57;5.28;;;;;;;12.94;100.00;100348.13;6011150;23;20027;-70
2023/09/19 05:23:32;;;;;;;9.75;5.35;;;;;;;13.31;100.00;100418.59;6032576;23;20078;-70
2023/09/19 05:25:59;;;;;;;5.72;5.38;;;;;;;12.48;100.00;100287.19;6004977;23;20078;-73
2023/09/19 05:28:26;;;;;;;5.35;4.90;;;;;;;13.39;100.00;100416.28;6030034;23;20052;-72
2023/09/19 05:30:53;;;;;;;5.13;4.85;;;;;;;13.53;100.00;100428.50;5981007;23;20101;-73
2023/09/19 05:33:19;;;;;;;6.30;5.40;;;;;;;13.50;100.00;100403.19;6029757;23;20693;-74
2023/09/19 05:35:48;;;;;;;6.38;5.25;;;;;;;13.14;100.00;100328.31;6008945;23;20091;-72
2023/09/19 05:38:18;;;;;;;6.68;5.20;;;;;;;12.44;100.00;100194.44;6012722;23;20143;-72
2023/09/19 05:40:45;;;;;;;5.43;4.93;;;;;;;13.81;100.00;100390.53;6024453;23;20015;-72
2023/09/19 05:43:14;;;;;;;9.43;5.30;;;;;;;13.83;100.00;100391.25;6021991;23;20031;-72
2023/09/19 05:45:41;;;;;;;5.25;4.85;;;;;;;13.39;100.00;100310.88;6054822;23;20023;-74
2023/09/19 05:48:15;;;;;;;5.90;5.45;;;;;;;13.93;100.00;100391.44;6009783;23;20019;-72
2023/09/19 05:50:46;;;;;;;5.97;5.18;;;;;;;13.90;100.00;100370.56;5993667;23;20361;-74
2023/09/19 05:53:14;;;;;;;5.57;5.28;;;;;;;14.04;100.00;100380.97;6018558;23;20377;-74
2023/09/19 05:55:41;;;;;;;5.60;5.07;;;;;;;13.86;100.00;100348.00;5998113;23;20035;-74
2023/09/19 05:58:09;;;;;;;5.55;5.20;;;;;;;14.12;100.00;100383.06;6022302;23;20117;-74
2023/09/19 06:00:36;;;;;;;6.47;6.07;;;;;;;13.82;100.00;100315.72;5997716;23;20033;-74
2023/09/19 06:03:05;;;;;;;7.70;5.13;;;;;;;14.24;100.00;100376.03;6039189;23;20025;-74
2023/09/19 06:05:32;;;;;;;6.32;5.20;;;;;;;14.28;100.00;100373.06;6024479;23;20026;-72
2023/09/19 06:08:07;;;;;;;7.43;5.45;;;;;;;14.33;100.00;100378.00;6024817;23;20524;-72
2023/09/19 06:10:35;;;;;;;5.53;5.10;;;;;;;14.39;100.00;100380.19;6000121;23;20034;-72
2023/09/19 06:13:05;;;;;;;5.03;4.82;;;;;;;14.32;100.00;100360.50;6054639;23;20083;-72
2023/09/19 06:15:33;;;;;;;5.28;4.97;;;;;;;14.20;100.00;100338.47;6027081;23;20022;-72
2023/09/19 06:18:02;;;;;;;5.72;5.35;;;;;;;14.48;100.00;100378.69;6027358;23;20027;-75
2023/09/19 06:20:29;;;;;;;5.57;5.05;;;;;;;14.54;100.00;100379.06;6031370;23;20563;-73
2023/09/19 06:22:56;;;;;;;5.72;5.43;;;;;;;14.64;100.00;100384.53;6025286;23;20611;-75
2023/09/19 06:25:23;;;;;;;5.45;5.07;;;;;;;14.09;100.00;100288.25;6029376;23;20033;-74
2023/09/19 06:27:54;;;;;;;5.35;4.95;;;;;;;14.67;100.00;100372.91;6029445;23;20026;-74
2023/09/19 06:30:24;;;;;;;5.53;5.22;;;;;;;14.54;100.00;100347.38;6025315;23;20030;-72
2023/09/19 06:32:58;;;;;;;6.70;4.97;;;;;;;14.76;100.00;100365.13;6059522;23;20264;-73
2023/09/19 06:35:29;;;;;;;5.50;5.20;;;;;;;14.75;100.00;100352.91;6024999;23;20022;-73
2023/09/19 06:37:57;;;;;;;5.32;5.03;;;;;;;14.80;100.00;100349.06;6058445;23;20030;-73
2023/09/19 06:40:25;;;;;;;5.97;5.47;;;;;;;14.27;100.00;100264.94;6030572;23;20108;-73
2023/09/19 06:42:52;;;;;;;5.10;4.80;;;;;;;14.86;100.00;100344.16;6044644;23;20011;-72
2023/09/19 06:45:21;;;;;;;5.70;5.30;;;;;;;14.45;100.00;100276.78;6001866;23;20473;-73
2023/09/19 06:47:50;;;;;;;6.50;4.93;;;;;;;15.00;100.00;100345.75;6025648;23;20672;-73
2023/09/19 06:50:22;;;;;;;5.60;5.30;;;;;;;14.91;100.00;100330.59;6002166;23;20063;-73
2023/09/19 06:52:53;;;;;;;6.30;5.20;;;;;;;15.16;100.00;100345.41;6022199;23;20034;-72
2023/09/19 06:55:24;;;;;;;5.72;5.38;;;;;;;15.20;100.00;100332.81;5996702;23;20027;-72
2023/09/19 06:57:52;;;;;;;5.90;5.50;;;;;;;14.74;99.60;100234.97;6019548;23;20566;-72
2023/09/19 07:00:18;;;;;;;5.50;5.10;;;;;;;15.35;99.27;100331.59;5996826;23;20031;-73
2023/09/19 07:02:54;;;;;;;5.22;4.93;;;;;;;15.47;98.48;100313.94;6021786;23;20026;-72
2023/09/19 07:05:21;;;;;;;7.35;5.85;;;;;;;15.02;97.77;100234.66;5993931;23;20098;-71
2023/09/19 07:07:48;;;;;;;5.10;4.85;;;;;;;15.54;97.54;100302.75;6025651;23;20462;-73
2023/09/19 07:10:14;;;;;;;5.50;4.97;;;;;;;15.46;96.88;100280.53;6000374;23;20089;-72
2023/09/19 07:12:42;;;;;;;7.30;5.90;;;;;;;15.52;95.86;100278.22;6026281;23;20006;-72
2023/09/19 07:15:09;;;;;;;7.88;5.80;;;;;;;15.78;95.51;100290.38;5966934;23;20086;-72
2023/09/19 07:17:36;;;;;;;5.80;5.30;;;;;;;15.81;94.79;100290.94;5997578;23;20023;-72
2023/09/19 07:20:07;;;;;;;5.85;5.38;;;;;;;15.81;94.39;100282.19;6025256;23;20029;-72
2023/09/19 07:22:34;;;;;;;5.88;5.25;;;;;;;15.97;93.50;100289.72;6000851;23;20014;-72
2023/09/19 07:25:03;;;;;;;5.80;5.30;;;;;;;16.08;93.72;100309.06;5993741;23;20019;-72
2023/09/19 07:27:29;;;;;;;6.38;5.65;;;;;;;16.15;92.70;100282.91;6001253;23;20034;-72
2023/09/19 07:29:55;;;;;;;9.57;5.38;;;;;;;14.11;91.13;99932.78;6025125;23;21333;-72
2023/09/19 07:32:22;;;;;;;5.97;5.47;;;;;;;16.11;90.89;100224.06;5999732;23;20108;-72
2023/09/19 07:34:48;;;;;;;6.13;5.68;;;;;;;16.62;90.68;100299.31;5996211;23;20473;-72
2023/09/19 07:37:16;;;;;;;8.18;5.78;;;;;;;16.70;89.54;100285.44;5988468;23;20102;-71
2023/09/19 07:39:44;;;;;;;6.30;5.75;;;;;;;16.48;87.30;100194.53;5994414;23;20035;-72
2023/09/19 07:42:17;;;;;;;5.93;5.50;;;;;;;16.63;85.82;100205.59;6022281;23;20034;-71
2023/09/19 07:44:47;;;;;;;5.10;4.90;;;;;;;16.55;87.28;100239.84;6001784;23;20401;-72
2023/09/19 07:47:14;;;;;;;7.80;5.95;;;;;;;16.67;87.36;100251.22;6022363;23;20050;-72
2023/09/19 07:49:42;;;;;;;5.35;5.13;;;;;;;17.05;87.10;100293.03;5975290;23;20050;-72
2023/09/19 07:52:12;;;;;;;6.47;5.40;;;;;;;17.28;86.67;100306.97;6023115;23;20026;-72
2023/09/19 07:54:38;;;;;;;5.70;5.40;;;;;;;17.12;84.64;100212.00;6023322;23;20068;-72
2023/09/19 07:57:05;;;;;;;5.60;5.30;;;;;;;17.00;82.65;100130.91;6003076;23;20555;-72
2023/09/19 07:59:31;;;;;;;6.20;5.70;;;;;;;17.15;82.20;100177.25;6025906;23;20263;-72
2023/09/19 08:01:58;;;;;;;6.00;5.40;;;;;;;17.37;81.86;100188.63;6024428;23;20041;-72
2023/09/19 08:04:25;;;;;;;7.95;5.88;;;;;;;17.51;82.31;100219.22;6057150;23;20073;-72
2023/09/19 08:06:52;;;;;;;6.45;5.85;;;;;;;17.11;81.75;100138.72;6025299;23;20399;-73
2023/09/19 08:09:20;;;;;;;6.45;5.88;;;;;;;17.64;80.41;100195.06;6056077;23;20046;-73
2023/09/19 08:11:50;;;;;;;6.43;5.25;;;;;;;17.67;80.41;100213.38;6021630;23;20023;-72
2023/09/19 08:14:17;;;;;;;5.68;5.38;;;;;;;17.46;79.77;100144.50;5991267;23;20028;-73
2023/09/19 08:16:44;;;;;;;5.57;5.28;;;;;;;17.90;79.17;100212.19;6024439;23;20037;-73
2023/09/19 08:19:11;;;;;;;6.68;5.50;;;;;;;17.84;78.68;100182.69;5999065;23;20053;-72
2023/09/19 08:21:37;;;;;;;7.13;6.35;;;;;;;17.99;79.07;100214.97;6024206;23;20050;-72
2023/09/19 08:24:04;;;;;;;7.93;5.65;;;;;;;17.78;78.88;100175.25;5998694;23;20026;-73
2023/09/19 08:26:31;;;;;;;5.75;5.45;;;;;;;17.73;78.07;100146.47;6026775;23;20434;-74
2023/09/19 08:28:57;;;;;;;5.93;5.45;;;;;;;18.16;77.60;100186.88;5994888;23;20367;-73
2023/09/19 08:31:25;;;;;;;7.53;5.40;;;;;;;17.86;76.68;100133.81;6023655;23;20038;-73
2023/09/19 08:33:55;;;;;;;15.43;5.68;;;;;;;17.90;77.07;100148.47;5993986;23;20094;-73
2023/09/19 08:36:22;;;;;;;5.68;5.28;;;;;;;17.68;76.19;100100.94;5989672;23;20034;-73
2023/09/19 08:38:49;;;;;;;7.68;5.55;;;;;;;18.06;76.16;100170.94;5994497;23;20033;-73
2023/09/19 08:41:17;;;;;;;5.90;5.40;;;;;;;18.01;74.57;100120.09;5992645;23;20089;-74
2023/09/19 08:43:43;;;;;;;5.70;5.32;;;;;;;18.16;74.87;100168.28;6017069;23;20111;-73
2023/09/19 08:46:14;;;;;;;5.75;5.45;;;;;;;18.25;74.36;100144.34;5989533;23;20078;-73
2023/09/19 08:48:48;;;;;;;5.88;5.53;;;;;;;18.74;74.24;100226.59;6016475;23;20035;-73
2023/09/19 08:51:48;;;;;;;7.65;6.95;;;;;;;18.80;74.05;100219.91;5995238;23;20038;-73
2023/09/19 08:54:32;;;;;;;6.20;5.65;;;;;;;18.27;72.25;100054.72;6025302;23;20051;-72
2023/09/19 08:57:05;;;;;;;6.15;5.63;;;;;;;18.64;69.72;100045.91;6000529;23;20599;-73
2023/09/19 08:59:35;;;;;;;6.30;5.82;;;;;;;18.63;69.96;100059.34;6052625;23;20026;-72
2023/09/19 09:02:04;;;;;;;5.95;5.55;;;;;;;18.66;71.51;100149.41;6024317;23;20058;-73
2023/09/19 09:04:30;;;;;;;6.15;5.75;;;;;;;18.05;71.43;100073.69;6056566;23;20084;-72
2023/09/19 09:06:58;;;;;;;6.32;5.50;;;;;;;18.54;72.03;100168.19;6021998;23;20023;-73
2023/09/19 09:09:24;;;;;;;5.80;5.50;;;;;;;19.11;71.17;100223.97;6054314;23;20038;-72
2023/09/19 09:11:52;;;;;;;6.05;5.65;;;;;;;19.23;70.03;100191.88;6003390;23;20102;-73
2023/09/19 09:14:21;;;;;;;6.20;5.80;;;;;;;19.11;68.88;100108.78;6052547;23;20022;-73
2023/09/19 09:16:48;;;;;;;5.43;5.13;;;;;;;19.17;67.70;100064.78;6004265;23;20574;-73
2023/09/19 09:19:23;;;;;;;6.53;6.13;;;;;;;18.99;67.79;100076.22;6049893;23;20423;-73
2023/09/19 09:21:51;;;;;;;6.15;5.65;;;;;;;19.37;67.08;100103.56;6027189;23;20054;-73
2023/09/19 09:24:29;;;;;;;5.97;5.60;;;;;;;19.47;65.89;100079.53;6025762;23;20098;-73
2023/09/19 09:26:58;;;;;;;5.60;5.30;;;;;;;19.65;65.88;100098.16;6052277;23;20025;-73
2023/09/19 09:29:49;;;;;;;6.40;5.78;;;;;;;19.90;65.05;100094.69;6010902;23;20125;-72
2023/09/19 09:32:22;;;;;;;6.20;5.60;;;;;;;19.64;65.25;100073.34;6048724;23;20040;-72
2023/09/19 09:34:49;;;;;;;;;;;;;;;19.85;63.81;100011.78;6020574;23;20023;-72
2023/09/19 09:37:19;;;;;;;6.47;5.80;;;;;;;19.66;63.36;99974.69;6048314;23;19984;-73
2023/09/19 09:39:56;;;;;;;6.00;5.05;;;;;;;19.98;62.90;100027.34;6022292;23;20106;-73
2023/09/19 09:42:35;;;;;;;6.13;5.68;;;;;;;20.11;62.38;100042.91;6019412;23;20082;-73
2023/09/19 09:45:17;;;;;;;5.72;5.43;;;;;;;20.22;60.29;99944.03;6019095;23;20062;-73
2023/09/19 09:47:58;;;;;;;6.05;5.60;;;;;;;20.25;61.75;100066.28;5991287;23;20174;-73
2023/09/19 09:50:29;;;;;;;5.68;5.38;;;;;;;20.40;61.52;100017.72;6019926;23;20019;-71
2023/09/19 09:53:06;;;;;;;8.32;5.40;;;;;;;20.47;61.48;100091.56;6000666;23;20031;-72
2023/09/19 09:56:05;;;;;;;6.20;5.80;;;;;;;20.39;61.88;100045.38;6024548;23;20034;-72
2023/09/19 09:58:36;;;;;;;5.65;5.35;;;;;;;20.03;61.35;100008.25;6003079;23;20075;-73
2023/09/19 10:01:14;;;;;;;6.00;5.45;;;;;;;19.87;61.64;100056.91;6003035;23;20055;-73
2023/09/19 10:03:51;;;;;;;6.07;5.57;;;;;;;20.28;62.87;100187.72;6014819;23;20027;-73
2023/09/19 10:12:03;;;;;;;5.90;5.60;;;;;;;20.21;62.43;100192.00;6056525;23;20086;-72
2023/09/19 10:14:32;;;;;;;5.80;5.13;;;;;;;20.40;62.18;100146.47;6027318;23;20018;-72
2023/09/19 10:17:04;;;;;;;5.72;5.32;;;;;;;20.47;62.08;100168.88;6027295;23;20027;-73
2023/09/19 10:19:37;;;;;;;6.23;5.87;;;;;;;20.18;60.94;100075.91;6059106;23;20084;-72
2023/09/19 10:22:05;;;;;;;5.50;5.20;;;;;;;20.31;60.88;100064.84;6023529;23;20026;-72
2023/09/19 10:24:36;;;;;;;6.38;5.60;;;;;;;20.45;60.02;100076.72;6027714;23;20780;-72
2023/09/19 10:27:11;;;;;;;5.65;5.30;;;;;;;20.18;60.49;100056.44;6055869;23;20026;-72
2023/09/19 10:29:39;;;;;;;6.60;6.05;;;;;;;20.11;61.16;100065.06;6024190;23;20031;-72
2023/09/19 10:32:06;;;;;;;6.22;5.57;;;;;;;20.00;61.82;100118.56;6057390;23;20073;-73
2023/09/19 10:34:37;;;;;;;6.00;5.60;;;;;;;19.93;60.71;100069.59;6026498;23;20042;-73
2023/09/19 10:37:05;;;;;;;5.90;5.60;;;;;;;19.21;61.53;99994.31;6058282;23;20106;-76
2023/09/19 10:39:33;;;;;;;5.97;5.50;;;;;;;20.08;61.61;100125.78;6027110;23;20575;-74
2023/09/19 10:42:05;;;;;;;5.68;5.32;;;;;;;19.94;61.54;100129.84;6004243;23;20042;-74
2023/09/19 10:44:33;;;;;;;6.25;5.68;;;;;;;20.12;61.00;100092.53;6056477;23;20081;-74
2023/09/19 10:46:59;;;;;;;5.85;5.45;;;;;;;20.22;61.47;100135.88;6029675;23;20025;-73
2023/09/19 10:49:26;;;;;;;6.00;5.60;;;;;;;20.16;60.08;100056.56;5999847;23;21472;-72
2023/09/19 10:51:57;;;;;;;7.78;6.10;;;;;;;20.12;58.66;99996.63;6024777;23;20080;-72
2023/09/19 10:54:28;;;;;;;5.67;5.37;;;;;;;20.12;59.61;100066.72;6028965;23;20030;-72
2023/09/19 10:56:58;;;;;;;5.90;5.40;;;;;;;20.07;59.61;100071.69;6052560;23;20030;-72
2023/09/19 10:59:25;;;;;;;5.80;5.50;;;;;;;19.91;60.17;100075.06;6005740;23;20039;-72
2023/09/19 11:01:56;;;;;;;6.40;5.90;;;;;;;20.23;61.95;100195.34;6027107;23;20035;-73
2023/09/19 11:04:32;;;;;;;6.10;5.72;;;;;;;19.87;60.20;100073.72;6034798;23;20026;-73
2023/09/19 11:07:11;;;;;;;6.00;5.60;;;;;;;20.13;60.21;100112.84;6062117;23;20041;-73
2023/09/19 11:09:55;;;;;;;5.95;5.45;;;;;;;20.09;60.51;100130.16;6029939;23;20414;-73
2023/09/19 11:12:31;;;;;;;6.25;5.85;;;;;;;20.32;61.33;100226.38;6027628;23;20011;-73
2023/09/19 11:14:58;;;;;;;5.88;5.30;;;;;;;20.29;61.32;100184.06;6054076;23;20072;-73
2023/09/19 11:17:37;;;;;;;6.00;5.70;;;;;;;20.45;60.71;100200.16;6022484;23;20019;-73
2023/09/19 11:22:59;;;;;;;6.95;5.60;;;;;;;20.74;59.43;100179.53;6028016;23;20007;-72
2023/09/19 11:25:34;;;;;;;5.93;5.57;;;;;;;20.85;58.79;100163.28;6052972;23;20034;-73
2023/09/19 11:28:08;;;;;;;6.40;6.00;;;;;;;21.11;58.91;100189.88;6028160;23;20049;-73
2023/09/19 11:30:37;;;;;;;5.80;5.50;;;;;;;20.88;58.04;100089.06;6057959;23;20021;-73
2023/09/19 11:33:22;;;;;;;6.22;5.82;;;;;;;21.22;55.79;100028.63;6029511;23;20499;-72
2023/09/19 11:36:24;;;;;;;6.10;5.55;;;;;;;21.20;56.58;100102.69;6058235;23;20473;-73
2023/09/19 11:38:52;;;;;;;5.95;5.32;;;;;;;21.27;56.27;100125.88;6029711;23;20026;-76
2023/09/19 11:41:21;;;;;;;6.75;6.30;;;;;;;21.12;55.27;100042.13;6029044;23;20038;-74
2023/09/19 11:43:51;;;;;;;5.78;5.47;;;;;;;21.07;56.50;100117.31;6009088;23;20119;-73